createdAt,value
2022-07-25T00:01:05.706Z,28.73
2022-07-25T00:03:39.137Z,28.72
2022-07-25T00:06:13.488Z,28.72
2022-07-25T00:08:44.742Z,28.71
2022-07-25T00:11:17.770Z,28.71
2022-07-25T00:13:50.698Z,28.70
2022-07-25T00:16:23.827Z,28.70
2022-07-25T00:18:56.693Z,28.69
2022-07-25T00:21:29.746Z,28.69
2022-07-25T00:24:03.176Z,28.68
2022-07-25T00:26:39.959Z,28.68
2022-07-25T00:29:08.763Z,28.68
2022-07-25T00:31:41.786Z,28.67
2022-07-25T00:34:14.747Z,28.67
2022-07-25T00:36:47.714Z,28.66
2022-07-25T00:39:20.748Z,28.65
2022-07-25T00:41:53.781Z,28.65
2022-07-25T00:44:26.748Z,28.64
2022-07-25T00:46:59.742Z,28.63
2022-07-25T00:49:32.806Z,28.63
2022-07-25T00:52:05.796Z,28.62
2022-07-25T00:54:38.741Z,28.62
2022-07-25T00:57:11.796Z,28.61
2022-07-25T00:59:44.762Z,28.60
2022-07-25T01:02:17.867Z,28.60
2022-07-25T01:04:50.784Z,28.59
2022-07-25T01:07:23.807Z,28.59
2022-07-25T01:09:56.816Z,28.58
2022-07-25T01:12:29.823Z,28.57
2022-07-25T01:15:02.761Z,28.57
2022-07-25T01:17:35.851Z,28.56
2022-07-25T01:20:08.797Z,28.56
2022-07-25T01:22:41.825Z,28.56
2022-07-25T01:25:14.848Z,28.55
2022-07-25T01:27:52.774Z,28.54
2022-07-25T01:30:20.801Z,28.54
2022-07-25T01:32:53.845Z,28.53
2022-07-25T01:35:26.818Z,28.53
2022-07-25T01:37:59.807Z,28.52
2022-07-25T01:40:32.826Z,28.52
2022-07-25T01:43:05.840Z,28.51
2022-07-25T01:45:38.824Z,28.51
2022-07-25T01:48:11.817Z,28.51
2022-07-25T01:50:44.646Z,28.50
2022-07-25T01:53:17.803Z,28.50
2022-07-25T01:55:50.862Z,28.49
2022-07-25T01:58:23.879Z,28.49
2022-07-25T02:00:57.036Z,28.49
2022-07-25T02:03:31.823Z,28.48
2022-07-25T02:06:04.883Z,28.48
2022-07-25T02:08:37.854Z,28.47
2022-07-25T02:11:10.846Z,28.46
2022-07-25T02:13:43.889Z,28.46
2022-07-25T02:16:16.879Z,28.45
2022-07-25T02:18:49.904Z,28.44
2022-07-25T02:21:22.904Z,28.44
2022-07-25T02:23:55.885Z,28.43
2022-07-25T02:26:28.923Z,28.43
2022-07-25T02:29:01.932Z,28.43
2022-07-25T02:31:34.942Z,28.42
2022-07-25T02:34:08.330Z,28.42
2022-07-25T02:36:40.883Z,28.41
2022-07-25T02:39:13.924Z,28.41
2022-07-25T02:41:46.948Z,28.40
2022-07-25T02:47:03.915Z,28.39
2022-07-25T02:49:36.915Z,28.39
2022-07-25T02:52:09.897Z,28.39
2022-07-25T02:54:42.927Z,28.38
2022-07-25T02:57:15.931Z,28.38
2022-07-25T02:59:48.939Z,28.37
2022-07-25T03:02:21.930Z,28.37
2022-07-25T03:04:54.984Z,28.37
2022-07-25T03:07:27.914Z,28.36
2022-07-25T03:10:00.919Z,28.36
2022-07-25T03:12:33.964Z,28.35
2022-07-25T03:15:06.963Z,28.35
2022-07-25T03:17:39.929Z,28.35
2022-07-25T03:20:12.951Z,28.34
2022-07-25T03:22:45.941Z,28.34
2022-07-25T03:25:21.417Z,28.33
2022-07-25T03:27:51.953Z,28.33
2022-07-25T03:30:24.977Z,28.32
2022-07-25T03:32:57.883Z,28.32
2022-07-25T03:35:30.993Z,28.31
2022-07-25T03:38:03.981Z,28.31
2022-07-25T03:40:36.738Z,28.30
2022-07-25T03:43:09.996Z,28.30
2022-07-25T03:45:43.072Z,28.30
2022-07-25T03:48:15.991Z,28.29
2022-07-25T03:50:48.983Z,28.29
2022-07-25T03:53:22.004Z,28.28
2022-07-25T03:55:54.999Z,28.27
2022-07-25T03:58:28.047Z,28.27
2022-07-25T04:01:01.098Z,28.26
2022-07-25T04:03:34.016Z,28.24
2022-07-25T04:06:07.002Z,28.22
2022-07-25T04:08:40.006Z,28.18
2022-07-25T04:11:12.858Z,28.14
2022-07-25T04:13:45.816Z,28.08
2022-07-25T04:16:22.362Z,28.02
2022-07-25T04:18:51.893Z,27.95
2022-07-25T04:21:24.864Z,27.89
2022-07-25T04:23:57.721Z,27.82
2022-07-25T04:26:30.765Z,27.76
2022-07-25T04:29:04.055Z,27.70
2022-07-25T04:31:37.214Z,27.64
2022-07-25T04:34:11.899Z,27.59
2022-07-25T04:36:45.082Z,27.54
2022-07-25T04:39:18.054Z,27.48
2022-07-25T04:41:51.133Z,27.44
2022-07-25T04:44:24.061Z,27.39
2022-07-25T04:46:57.083Z,27.35
2022-07-25T04:49:30.060Z,27.31
2022-07-25T04:52:03.080Z,27.28
2022-07-25T04:54:36.081Z,27.25
2022-07-25T04:57:09.084Z,27.22
2022-07-25T04:59:42.091Z,27.19
2022-07-25T05:02:15.184Z,27.16
2022-07-25T05:04:48.091Z,27.14
2022-07-25T05:07:21.157Z,27.13
2022-07-25T05:09:54.155Z,27.11
2022-07-25T05:12:27.080Z,27.09
2022-07-25T05:15:00.132Z,27.08
2022-07-25T05:17:33.100Z,27.07
2022-07-25T05:20:06.112Z,27.06
2022-07-25T05:22:39.111Z,27.04
2022-07-25T05:25:12.142Z,27.03
2022-07-25T05:27:45.159Z,27.02
2022-07-25T05:30:18.130Z,27.01
2022-07-25T05:32:51.115Z,27.01
2022-07-25T05:35:24.137Z,27.00
2022-07-25T05:37:57.179Z,26.99
2022-07-25T05:40:30.205Z,26.97
2022-07-25T05:43:03.773Z,26.95
2022-07-25T05:45:36.182Z,26.95
2022-07-25T05:48:08.947Z,26.96
2022-07-25T05:50:41.999Z,26.98
2022-07-25T05:53:14.952Z,27.00
2022-07-25T05:55:48.194Z,27.03
2022-07-25T05:58:23.916Z,27.06
2022-07-25T06:00:53.896Z,27.08
2022-07-25T06:03:27.317Z,27.11
2022-07-25T06:06:00.189Z,27.14
2022-07-25T06:08:33.162Z,27.17
2022-07-25T06:11:05.880Z,27.19
2022-07-25T06:13:38.973Z,27.22
2022-07-25T06:16:12.032Z,27.24
2022-07-25T06:18:45.216Z,27.26
2022-07-25T06:21:17.895Z,27.28
2022-07-25T06:23:50.917Z,27.29
2022-07-25T06:26:24.019Z,27.32
2022-07-25T06:28:57.268Z,27.33
2022-07-25T06:31:30.297Z,27.35
2022-07-25T06:34:03.577Z,27.36
2022-07-25T06:36:36.227Z,27.38
2022-07-25T06:39:08.974Z,27.39
2022-07-25T06:41:42.045Z,27.40
2022-07-25T06:44:15.044Z,27.41
2022-07-25T06:46:47.964Z,27.43
2022-07-25T06:49:20.949Z,27.44
2022-07-25T06:51:53.972Z,27.45
2022-07-25T06:54:26.949Z,27.46
2022-07-25T06:57:00.274Z,27.47
2022-07-25T06:59:33.262Z,27.48
2022-07-25T07:02:05.954Z,27.49
2022-07-25T07:04:38.945Z,27.50
2022-07-25T07:07:11.961Z,27.51
2022-07-25T07:09:45.293Z,27.52
2022-07-25T07:12:18.290Z,27.52
2022-07-25T07:14:51.189Z,27.53
2022-07-25T07:17:24.292Z,27.54
2022-07-25T07:19:57.317Z,27.55
2022-07-25T07:22:30.326Z,27.56
2022-07-25T07:25:03.283Z,27.56
2022-07-25T07:27:36.319Z,27.57
2022-07-25T07:30:09.474Z,27.57
2022-07-25T07:32:42.999Z,27.58
2022-07-25T07:35:16.327Z,27.58
2022-07-25T07:37:49.318Z,27.59
2022-07-25T07:40:22.302Z,27.59
2022-07-25T07:42:55.326Z,27.60
2022-07-25T07:45:28.356Z,27.61
2022-07-25T07:48:01.027Z,27.61
2022-07-25T07:50:34.035Z,27.61
2022-07-25T07:53:07.320Z,27.62
2022-07-25T07:55:40.283Z,27.63
2022-07-25T07:58:13.341Z,27.63
2022-07-25T08:00:46.343Z,27.64
2022-07-25T08:03:19.510Z,27.64
2022-07-25T08:05:52.315Z,27.64
2022-07-25T08:08:30.614Z,27.65
2022-07-25T08:10:59.031Z,27.65
2022-07-25T08:13:31.062Z,27.66
2022-07-25T08:16:04.207Z,27.66
2022-07-25T08:18:37.390Z,27.66
2022-07-25T08:23:44.384Z,27.67
2022-07-25T08:26:17.385Z,27.68
2022-07-25T08:29:00.005Z,27.68
2022-07-25T08:31:23.492Z,27.68
2022-07-25T08:33:56.411Z,27.69
2022-07-25T08:36:34.555Z,27.69
2022-07-25T08:39:02.409Z,27.70
2022-07-25T08:41:35.386Z,27.70
2022-07-25T08:44:08.708Z,27.70
2022-07-25T08:46:41.233Z,27.71
2022-07-25T08:49:14.163Z,27.71
2022-07-25T08:51:47.452Z,27.72
2022-07-25T08:54:20.405Z,27.72
2022-07-25T08:56:53.112Z,27.73
2022-07-25T08:59:26.415Z,27.73
2022-07-25T09:01:59.585Z,27.73
2022-07-25T09:04:32.441Z,27.74
2022-07-25T09:07:08.232Z,27.74
2022-07-25T09:09:38.462Z,27.74
2022-07-25T09:12:12.460Z,27.75
2022-07-25T09:14:45.440Z,27.75
2022-07-25T09:17:22.604Z,27.76
2022-07-25T09:19:51.408Z,27.76
2022-07-25T09:22:24.148Z,27.76
2022-07-25T09:24:57.444Z,27.77
2022-07-25T09:27:30.465Z,27.77
2022-07-25T09:30:03.456Z,27.77
2022-07-25T09:32:36.469Z,27.77
2022-07-25T09:35:09.578Z,27.78
2022-07-25T09:37:44.443Z,27.78
2022-07-25T09:40:17.456Z,27.79
2022-07-25T09:42:50.173Z,27.79
2022-07-25T09:45:27.069Z,27.80
2022-07-25T09:47:56.187Z,27.80
2022-07-25T09:50:29.631Z,27.80
2022-07-25T09:53:02.261Z,27.81
2022-07-25T09:55:35.193Z,27.81
2022-07-25T09:58:08.275Z,27.82
2022-07-25T10:00:43.603Z,27.82
2022-07-25T10:03:17.325Z,27.83
2022-07-25T10:05:50.313Z,27.83
2022-07-25T10:08:23.258Z,27.84
2022-07-25T10:10:56.217Z,27.84
2022-07-25T10:13:29.238Z,27.84
2022-07-25T10:16:02.232Z,27.85
2022-07-25T10:18:35.266Z,27.85
2022-07-25T10:21:24.381Z,27.86
2022-07-25T10:23:41.354Z,27.86
2022-07-25T10:26:14.605Z,27.87
2022-07-25T10:28:47.546Z,27.87
2022-07-25T10:31:20.547Z,27.88
2022-07-25T10:33:53.549Z,27.88
2022-07-25T10:36:26.557Z,27.89
2022-07-25T10:38:59.568Z,27.89
2022-07-25T10:41:32.401Z,27.90
2022-07-25T10:44:05.747Z,27.91
2022-07-25T10:46:38.438Z,27.91
2022-07-25T10:49:12.044Z,27.91
2022-07-25T10:51:44.606Z,27.92
2022-07-25T10:54:17.617Z,27.92
2022-07-25T10:56:50.597Z,27.93
2022-07-25T10:59:23.628Z,27.93
2022-07-25T11:01:56.563Z,27.93
2022-07-25T11:04:29.402Z,27.94
2022-07-25T11:07:02.285Z,27.94
2022-07-25T11:09:35.410Z,27.95
2022-07-25T11:12:08.376Z,27.95
2022-07-25T11:14:41.418Z,27.96
2022-07-25T11:17:14.458Z,27.96
2022-07-25T11:19:47.407Z,27.97
2022-07-25T11:22:20.461Z,27.97
2022-07-25T11:24:53.422Z,27.98
2022-07-25T11:27:26.444Z,27.98
2022-07-25T11:29:59.624Z,27.98
2022-07-25T11:32:32.655Z,27.99
2022-07-25T11:35:05.644Z,27.99
2022-07-25T11:37:38.366Z,28.00
2022-07-25T11:40:11.450Z,28.00
2022-07-25T11:42:44.452Z,28.01
2022-07-25T11:45:17.359Z,28.01
2022-07-25T11:47:50.473Z,28.02
2022-07-25T11:50:23.685Z,28.03
2022-07-25T11:52:56.669Z,28.03
2022-07-25T11:55:29.660Z,28.04
2022-07-25T11:58:02.431Z,28.04
2022-07-25T12:00:35.398Z,28.05
2022-07-25T12:03:08.620Z,28.05
2022-07-25T12:05:41.487Z,28.06
2022-07-25T12:08:14.684Z,28.06
2022-07-25T12:10:47.755Z,28.07
2022-07-25T12:13:20.715Z,28.08
2022-07-25T12:15:53.709Z,28.08
2022-07-25T12:18:26.757Z,28.08
2022-07-25T12:20:59.666Z,28.09
2022-07-25T12:23:35.421Z,28.10
2022-07-25T12:26:08.726Z,28.10
2022-07-25T12:28:41.717Z,28.11
2022-07-25T12:31:14.911Z,28.11
2022-07-25T12:33:47.423Z,28.12
2022-07-25T12:36:20.754Z,28.13
2022-07-25T12:38:53.791Z,28.13
2022-07-25T12:41:26.785Z,28.13
2022-07-25T12:43:59.762Z,28.14
2022-07-25T12:46:32.741Z,28.14
2022-07-25T12:49:06.243Z,28.15
2022-07-25T12:51:38.554Z,28.15
2022-07-25T12:54:11.727Z,28.16
2022-07-25T12:56:44.483Z,28.16
2022-07-25T12:59:17.737Z,28.16
2022-07-25T13:01:50.968Z,28.17
2022-07-25T13:04:23.789Z,28.17
2022-07-25T13:06:56.530Z,28.18
2022-07-25T13:09:29.843Z,28.18
2022-07-25T13:12:02.498Z,28.19
2022-07-25T13:14:35.825Z,28.19
2022-07-25T13:17:08.820Z,28.19
2022-07-25T13:19:41.828Z,28.20
2022-07-25T13:22:14.813Z,28.20
2022-07-25T13:24:47.792Z,28.21
2022-07-25T13:27:20.833Z,28.21
2022-07-25T13:29:53.495Z,28.22
2022-07-25T13:32:26.618Z,28.22
2022-07-25T13:34:59.803Z,28.23
2022-07-25T13:37:32.861Z,28.23
2022-07-25T13:40:05.518Z,28.23
2022-07-25T13:42:38.602Z,28.24
2022-07-25T13:45:11.881Z,28.24
2022-07-25T13:47:44.845Z,28.24
2022-07-25T13:50:17.935Z,28.25
2022-07-25T13:52:50.829Z,28.25
2022-07-25T13:55:23.887Z,28.25
2022-07-25T13:57:56.636Z,28.26
2022-07-25T14:00:29.663Z,28.26
2022-07-25T14:03:02.535Z,28.26
2022-07-25T14:05:35.867Z,28.27
2022-07-25T14:08:08.553Z,28.27
2022-07-25T14:10:41.671Z,28.27
2022-07-25T14:13:14.934Z,28.28
2022-07-25T14:15:47.886Z,28.28
2022-07-25T14:18:20.566Z,28.28
2022-07-25T14:20:53.569Z,28.29
2022-07-25T14:23:30.140Z,28.29
2022-07-25T14:25:59.905Z,28.29
2022-07-25T14:28:32.843Z,28.30
2022-07-25T14:31:05.617Z,28.30
2022-07-25T14:33:38.825Z,28.30
2022-07-25T14:36:11.909Z,28.31
2022-07-25T14:38:44.922Z,28.32
2022-07-25T14:41:17.968Z,28.33
2022-07-25T14:43:50.982Z,28.34
2022-07-25T14:46:23.631Z,28.34
2022-07-25T14:48:56.775Z,28.35
2022-07-25T14:51:29.676Z,28.35
2022-07-25T14:54:02.961Z,28.36
2022-07-25T14:56:35.635Z,28.37
2022-07-25T14:59:09.196Z,28.38
2022-07-25T15:01:41.740Z,28.39
2022-07-25T15:04:14.940Z,28.39
2022-07-25T15:06:47.755Z,28.40
2022-07-25T15:09:20.692Z,28.41
2022-07-25T15:11:53.999Z,28.42
2022-07-25T15:14:26.759Z,28.43
2022-07-25T15:17:00.019Z,28.44
2022-07-25T15:19:32.844Z,28.46
2022-07-25T15:22:05.671Z,28.47
2022-07-25T15:24:57.679Z,28.48
2022-07-25T15:27:12.069Z,28.49
2022-07-25T15:29:44.987Z,28.50
2022-07-25T15:32:18.076Z,28.51
2022-07-25T15:34:50.694Z,28.52
2022-07-25T15:37:23.761Z,28.53
2022-07-25T15:39:56.780Z,28.54
2022-07-25T15:42:30.024Z,28.55
2022-07-25T15:45:31.945Z,28.56
2022-07-25T15:47:36.053Z,28.57
2022-07-25T15:50:08.821Z,28.58
2022-07-25T15:52:42.062Z,28.58
2022-07-25T15:55:14.838Z,28.59
2022-07-25T15:57:47.708Z,28.59
2022-07-25T16:00:23.713Z,28.59
2022-07-25T16:02:55.808Z,28.60
2022-07-25T16:05:28.837Z,28.60
2022-07-25T16:08:01.727Z,28.61
2022-07-25T16:10:34.715Z,28.62
2022-07-25T16:13:07.879Z,28.63
2022-07-25T16:15:40.737Z,28.64
2022-07-25T16:18:13.733Z,28.66
2022-07-25T16:20:46.882Z,28.67
2022-07-25T16:23:19.855Z,28.69
2022-07-25T16:25:53.116Z,28.71
2022-07-25T16:28:25.770Z,28.72
2022-07-25T16:30:59.030Z,28.74
2022-07-25T16:33:31.908Z,28.75
2022-07-25T16:36:04.766Z,28.77
2022-07-25T16:38:37.892Z,28.78
2022-07-25T16:41:10.797Z,28.80
2022-07-25T16:43:44.097Z,28.81
2022-07-25T16:46:16.932Z,28.83
2022-07-25T16:48:49.880Z,28.84
2022-07-25T16:51:22.895Z,28.85
2022-07-25T16:53:55.793Z,28.87
2022-07-25T16:56:28.818Z,28.88
2022-07-25T16:59:01.821Z,28.89
2022-07-25T17:01:34.958Z,28.90
2022-07-25T17:04:08.127Z,28.90
2022-07-25T17:06:41.687Z,28.91
2022-07-25T17:09:14.119Z,28.92
2022-07-25T17:11:46.949Z,28.93
2022-07-25T17:14:19.948Z,28.94
2022-07-25T17:16:52.923Z,28.95
2022-07-25T17:19:25.932Z,28.96
2022-07-25T17:21:58.838Z,28.97
2022-07-25T17:24:31.878Z,28.98
2022-07-25T17:27:05.147Z,28.99
2022-07-25T17:29:37.838Z,28.99
2022-07-25T17:32:10.852Z,29.00
2022-07-25T17:34:43.842Z,29.01
2022-07-25T17:37:18.950Z,29.01
2022-07-25T17:39:51.964Z,29.02
2022-07-25T17:42:24.906Z,29.03
2022-07-25T17:44:57.885Z,29.03
2022-07-25T17:47:30.886Z,29.04
2022-07-25T17:50:04.194Z,29.05
2022-07-25T17:52:37.144Z,29.05
2022-07-25T17:55:10.178Z,29.06
2022-07-25T17:57:43.227Z,29.07
2022-07-25T18:00:16.199Z,29.07
2022-07-25T18:02:48.945Z,29.08
2022-07-25T18:05:22.050Z,29.09
2022-07-25T18:07:54.933Z,29.10
2022-07-25T18:10:28.201Z,29.10
2022-07-25T18:13:01.370Z,29.10
2022-07-25T18:15:35.326Z,29.09
2022-07-25T18:18:08.058Z,29.06
2022-07-25T18:20:40.913Z,29.03
2022-07-25T18:23:14.035Z,29.00
2022-07-25T18:25:47.032Z,28.97
2022-07-25T18:28:20.288Z,28.93
2022-07-25T18:30:52.992Z,28.91
2022-07-25T18:33:25.977Z,28.89
2022-07-25T18:36:00.889Z,28.88
2022-07-25T18:38:32.238Z,28.87
2022-07-25T18:41:28.042Z,28.86
2022-07-25T18:43:38.264Z,28.85
2022-07-25T18:46:11.305Z,28.84
2022-07-25T18:48:44.493Z,28.83
2022-07-25T18:51:17.058Z,28.82
2022-07-25T18:53:50.076Z,28.82
2022-07-25T18:56:23.023Z,28.82
2022-07-25T18:58:56.285Z,28.81
2022-07-25T19:01:29.094Z,28.81
2022-07-25T19:04:01.961Z,28.81
2022-07-25T19:06:35.119Z,28.80
2022-07-25T19:09:08.004Z,28.80
2022-07-25T19:11:42.426Z,28.80
2022-07-25T19:14:13.989Z,28.79
2022-07-25T19:16:47.108Z,28.79
2022-07-25T19:19:20.010Z,28.79
2022-07-25T19:21:53.148Z,28.79
2022-07-25T19:24:26.138Z,28.78
2022-07-25T19:26:59.036Z,28.78
2022-07-25T19:29:32.196Z,28.78
2022-07-25T19:32:05.323Z,28.77
2022-07-25T19:34:38.359Z,28.77
2022-07-25T19:37:11.342Z,28.77
2022-07-25T19:39:44.015Z,28.77
2022-07-25T19:42:17.060Z,28.77
2022-07-25T19:44:50.401Z,28.78
2022-07-25T19:47:23.188Z,28.78
2022-07-25T19:49:56.132Z,28.78
2022-07-25T19:52:29.115Z,28.78
2022-07-25T19:55:02.050Z,28.79
2022-07-25T19:57:35.156Z,28.80
2022-07-25T20:00:08.111Z,28.80
2022-07-25T20:02:41.235Z,28.80
2022-07-25T20:05:14.413Z,28.81
2022-07-25T20:07:47.523Z,28.81
2022-07-25T20:10:21.424Z,28.81
2022-07-25T20:12:56.934Z,28.82
2022-07-25T20:15:27.265Z,28.82
2022-07-25T20:18:00.172Z,28.83
2022-07-25T20:20:33.170Z,28.83
2022-07-25T20:23:06.089Z,28.83
2022-07-25T20:25:39.496Z,28.84
2022-07-25T20:28:12.435Z,28.84
2022-07-25T20:30:45.468Z,28.85
2022-07-25T20:33:18.172Z,28.85
2022-07-25T20:35:51.228Z,28.84
2022-07-25T20:38:24.364Z,28.82
2022-07-25T20:40:57.155Z,28.80
2022-07-25T20:43:30.107Z,28.77
2022-07-25T20:46:08.905Z,28.76
2022-07-25T20:48:36.306Z,28.75
2022-07-25T20:51:09.230Z,28.74
2022-07-25T20:53:42.151Z,28.73
2022-07-25T20:56:15.246Z,28.72
2022-07-25T20:58:48.467Z,28.72
2022-07-25T21:01:21.371Z,28.71
2022-07-25T21:03:54.240Z,28.71
2022-07-25T21:06:27.535Z,28.71
2022-07-25T21:09:00.514Z,28.70
2022-07-25T21:11:35.190Z,28.70
2022-07-25T21:14:08.852Z,28.69
2022-07-25T21:16:41.523Z,28.69
2022-07-25T21:19:14.525Z,28.68
2022-07-25T21:21:47.460Z,28.68
2022-07-25T21:24:20.480Z,28.68
2022-07-25T21:26:53.472Z,28.68
2022-07-25T21:29:26.511Z,28.67
2022-07-25T21:31:59.613Z,28.67
2022-07-25T21:34:32.625Z,28.67
2022-07-25T21:37:05.536Z,28.66
2022-07-25T21:39:38.540Z,28.66
2022-07-25T21:42:11.460Z,28.66
2022-07-25T21:44:44.527Z,28.66
2022-07-25T21:47:17.555Z,28.65
2022-07-25T21:49:50.545Z,28.65
2022-07-25T21:52:30.038Z,28.64
2022-07-25T21:54:56.523Z,28.64
2022-07-25T21:57:29.587Z,28.64
2022-07-25T22:00:02.515Z,28.64
2022-07-25T22:02:35.561Z,28.64
2022-07-25T22:05:08.544Z,28.63
2022-07-25T22:07:41.536Z,28.63
2022-07-25T22:10:14.594Z,28.63
2022-07-25T22:12:47.385Z,28.63
2022-07-25T22:15:20.606Z,28.62
2022-07-25T22:17:53.607Z,28.62
2022-07-25T22:20:26.604Z,28.62
2022-07-25T22:22:59.549Z,28.62
2022-07-25T22:25:32.572Z,28.61
2022-07-25T22:28:05.576Z,28.61
2022-07-25T22:30:38.527Z,28.61
2022-07-25T22:33:11.578Z,28.60
2022-07-25T22:35:44.614Z,28.60
2022-07-25T22:38:17.594Z,28.60
2022-07-25T22:40:50.615Z,28.59
2022-07-25T22:43:23.584Z,28.59
2022-07-25T22:45:56.633Z,28.58
2022-07-25T22:48:29.677Z,28.58
2022-07-25T22:51:02.633Z,28.57
2022-07-25T22:53:35.623Z,28.57
2022-07-25T22:56:08.686Z,28.57
2022-07-25T22:58:41.657Z,28.57
2022-07-25T23:01:14.657Z,28.56
2022-07-25T23:03:47.751Z,28.56
2022-07-25T23:06:20.675Z,28.56
2022-07-25T23:08:53.619Z,28.56
2022-07-25T23:11:26.650Z,28.55
2022-07-25T23:13:59.651Z,28.55
2022-07-25T23:16:32.741Z,28.55
2022-07-25T23:19:06.087Z,28.54
2022-07-25T23:21:39.028Z,28.54
2022-07-25T23:24:11.645Z,28.53
2022-07-25T23:26:44.715Z,28.53
2022-07-25T23:29:17.649Z,28.53
2022-07-25T23:31:50.748Z,28.52
2022-07-25T23:34:23.824Z,28.52
2022-07-25T23:36:59.663Z,28.51
2022-07-25T23:39:32.716Z,28.51
2022-07-25T23:42:05.645Z,28.50
2022-07-25T23:44:38.701Z,28.50
2022-07-25T23:47:11.820Z,28.49
2022-07-25T23:49:44.754Z,28.49
2022-07-25T23:52:17.751Z,28.48
2022-07-25T23:54:54.626Z,28.48
2022-07-25T23:57:27.688Z,28.47
